Time;durP1;ratioP1;P1;durP2;ratioP2;P2;SDS_P1;SDS_P2;PMS_P1;PMS_P2;Temp;Humidity;BMP_temperature;BMP_pressure;BME280_temperature;BME280_humidity;BME280_pressure;Samples;Min_cycle;Max_cycle;Signal;HPM_P1;HPM_P2
2022/05/10 00:00:26;;;;;;;;;;;9.40;99.90;;;;;;5052030;28;19916;-72
2022/05/10 00:02:53;;;;;;;;;;;9.40;99.90;;;;;;5051914;28;19909;-72
2022/05/10 00:05:24;;;;;;;;;;;9.40;99.90;;;;;;5051893;28;19909;-72
2022/05/10 00:07:49;;;;;;;;;;;9.30;99.90;;;;;;5052036;28;19909;-72
2022/05/10 00:10:15;;;;;;;;;;;9.30;99.90;;;;;;5051879;28;20019;-72
2022/05/10 00:12:40;;;;;;;;;;;9.30;99.90;;;;;;5051630;28;19908;-73
2022/05/10 00:15:06;;;;;;;;;;;9.20;99.90;;;;;;5050890;28;19966;-72
2022/05/10 00:17:37;;;;;;;;;;;9.00;99.90;;;;;;5051720;28;20380;-72
2022/05/10 00:20:03;;;;;;;;;;;9.00;99.90;;;;;;5051778;28;20286;-72
2022/05/10 00:22:29;;;;;;;;;;;9.00;99.90;;;;;;5052056;28;19909;-72
2022/05/10 00:24:55;;;;;;;;;;;9.00;99.90;;;;;;5051426;28;20384;-72
2022/05/10 00:27:20;;;;;;;;;;;9.00;99.90;;;;;;5051281;28;19909;-73
2022/05/10 00:29:46;;;;;;;;;;;8.90;99.90;;;;;;5056983;28;20310;-72
2022/05/10 00:32:11;;;;;;;;;;;9.00;99.90;;;;;;5050957;28;19960;-72
2022/05/10 00:34:37;;;;;;;;;;;9.00;99.90;;;;;;5051112;28;19908;-73
2022/05/10 00:37:03;;;;;;;;;;;9.00;99.90;;;;;;5051858;28;19916;-72
2022/05/10 00:39:28;;;;;;;;;;;8.90;99.90;;;;;;5051555;28;19909;-72
2022/05/10 00:41:56;;;;;;;;;;;8.80;99.90;;;;;;5051201;28;19932;-72
2022/05/10 00:44:31;;;;;;;;;;;8.70;99.90;;;;;;5051551;28;19909;-72
2022/05/10 00:47:05;;;;;;;;;;;8.70;99.90;;;;;;5046219;28;19909;-72
2022/05/10 00:49:51;;;;;;;;;;;8.70;99.90;;;;;;5051366;28;19968;-72
2022/05/10 00:52:39;;;;;;;;;;;8.60;99.90;;;;;;5044456;28;20082;-72
2022/05/10 00:55:13;;;;;;;;;;;8.60;99.90;;;;;;5051257;28;19998;-72
2022/05/10 00:57:44;;;;;;;;;;;8.60;99.90;;;;;;5051630;28;20270;-72
2022/05/10 01:00:18;;;;;;;;;;;8.70;99.90;;;;;;5052014;28;20381;-72
2022/05/10 01:02:47;;;;;;;;;;;8.70;99.90;;;;;;5047190;28;19920;-72
2022/05/10 01:05:31;;;;;;;;;;;8.70;99.90;;;;;;5054396;28;19909;-72
2022/05/10 01:08:18;;;;;;;;;;;8.60;99.90;;;;;;5051557;28;20004;-72
2022/05/10 01:10:50;;;;;;;;;;;8.50;99.90;;;;;;5054766;28;19920;-73
2022/05/10 01:13:30;;;;;;;;;;;8.50;99.90;;;;;;5054600;28;19909;-72
2022/05/10 01:16:09;;;;;;;;;;;8.50;99.90;;;;;;5054426;28;19913;-72
2022/05/10 01:18:35;;;;;;;;;;;8.50;99.90;;;;;;5054756;28;19913;-72
2022/05/10 01:21:07;;;;;;;;;;;8.60;99.90;;;;;;5055071;28;19948;-72
2022/05/10 01:23:35;;;;;;;;;;;8.50;99.90;;;;;;5054902;28;20374;-72
2022/05/10 01:26:01;;;;;;;;;;;8.70;99.90;;;;;;5054118;28;19912;-72
2022/05/10 01:28:30;;;;;;;;;;;8.70;99.90;;;;;;5054642;28;20336;-72
2022/05/10 01:30:57;;;;;;;;;;;8.60;99.90;;;;;;5054712;28;19913;-72
2022/05/10 01:33:32;;;;;;;;;;;8.60;99.90;;;;;;5054629;28;19920;-72
2022/05/10 01:36:03;;;;;;;;;;;8.50;99.90;;;;;;5053708;28;20381;-72
2022/05/10 01:38:45;;;;;;;;;;;8.40;99.90;;;;;;5052480;28;19932;-72
2022/05/10 01:41:21;;;;;;;;;;;8.30;99.90;;;;;;5054013;28;19992;-72
2022/05/10 01:44:05;;;;;;;;;;;8.30;99.90;;;;;;5051543;28;19963;-72
2022/05/10 01:46:31;;;;;;;;;;;8.30;99.90;;;;;;5054314;28;19909;-72
2022/05/10 01:49:07;;;;;;;;;;;8.30;99.90;;;;;;5054392;28;19917;-72
2022/05/10 01:51:45;;;;;;;;;;;8.30;99.90;;;;;;5054193;28;20373;-72
2022/05/10 01:54:40;;;;;;;;;;;8.30;99.90;;;;;;5055035;28;20386;-73
2022/05/10 01:57:10;;;;;;;;;;;8.20;99.90;;;;;;5050676;28;19915;-72
2022/05/10 01:59:37;;;;;;;;;;;8.20;99.90;;;;;;5053702;28;20020;-72
2022/05/10 02:02:03;;;;;;;;;;;8.20;99.90;;;;;;5053125;28;19950;-72
2022/05/10 02:04:32;;;;;;;;;;;8.20;99.90;;;;;;5053742;28;19909;-73
2022/05/10 02:07:00;;;;;;;;;;;8.20;99.90;;;;;;5053911;28;19913;-72
2022/05/10 02:09:42;;;;;;;;;;;8.10;99.90;;;;;;5053807;28;19920;-72
2022/05/10 02:12:11;;;;;;;;;;;8.00;99.90;;;;;;5054246;28;20285;-72
2022/05/10 02:14:46;;;;;;;;;;;8.00;99.90;;;;;;5072902;28;19916;-72
2022/05/10 02:17:14;;;;;;;;;;;8.00;99.90;;;;;;5072966;28;19915;-72
2022/05/10 02:19:48;;;;;;;;;;;8.00;99.90;;;;;;5072642;28;19915;-72
2022/05/10 02:22:21;;;;;;;;;;;7.80;99.90;;;;;;5072846;28;19912;-72
2022/05/10 02:24:57;;;;;;;;;;;7.80;99.90;;;;;;5072789;28;19970;-72
2022/05/10 02:27:24;;;;;;;;;;;7.80;99.90;;;;;;5072993;28;19963;-72
2022/05/10 02:29:57;;;;;;;;;;;7.80;99.90;;;;;;5073241;28;19916;-72
2022/05/10 02:35:11;;;;;;;;;;;7.90;99.90;;;;;;5049095;28;19970;-72
2022/05/10 02:37:37;;;;;;;;;;;8.00;99.90;;;;;;5053487;28;20359;-71
2022/05/10 02:40:03;;;;;;;;;;;8.00;99.90;;;;;;5053393;28;19912;-72
2022/05/10 02:42:29;;;;;;;;;;;7.90;99.90;;;;;;5055219;28;19935;-72
2022/05/10 02:44:55;;;;;;;;;;;7.70;99.90;;;;;;5059187;28;19944;-72
2022/05/10 02:47:35;;;;;;;;;;;7.70;99.90;;;;;;5052604;28;19969;-72
2022/05/10 02:50:02;;;;;;;;;;;7.70;99.90;;;;;;5057450;28;19921;-71
2022/05/10 02:52:27;;;;;;;;;;;7.70;99.90;;;;;;5052994;28;19913;-72
2022/05/10 02:55:08;;;;;;;;;;;7.70;99.90;;;;;;5053181;28;19920;-72
2022/05/10 02:57:34;;;;;;;;;;;7.60;99.90;;;;;;5060726;28;19908;-72
2022/05/10 03:00:01;;;;;;;;;;;7.60;99.90;;;;;;5055308;28;20368;-72
2022/05/10 03:02:33;;;;;;;;;;;7.50;99.90;;;;;;5052914;28;19948;-72
2022/05/10 03:04:58;;;;;;;;;;;7.40;99.90;;;;;;5052960;28;19909;-72
2022/05/10 03:07:27;;;;;;;;;;;7.40;99.90;;;;;;5053221;28;19916;-72
2022/05/10 03:09:53;;;;;;;;;;;7.50;99.90;;;;;;5052740;28;20014;-72
2022/05/10 03:12:18;;;;;;;;;;;7.50;99.90;;;;;;5052935;28;20382;-72
2022/05/10 03:14:44;;;;;;;;;;;7.60;99.90;;;;;;5052882;28;19913;-72
2022/05/10 03:17:10;;;;;;;;;;;7.60;99.90;;;;;;5053062;28;20289;-72
2022/05/10 03:19:36;;;;;;;;;;;7.60;99.90;;;;;;5052967;28;19941;-71
2022/05/10 03:22:02;;;;;;;;;;;7.60;99.90;;;;;;5052731;28;19913;-72
2022/05/10 03:24:28;;;;;;;;;;;7.60;99.90;;;;;;5052497;28;19913;-72
2022/05/10 03:26:54;;;;;;;;;;;7.60;99.90;;;;;;5052626;28;19932;-72
2022/05/10 03:29:20;;;;;;;;;;;7.50;99.90;;;;;;5052355;28;20400;-72
2022/05/10 03:31:45;;;;;;;;;;;7.50;99.90;;;;;;5051185;28;19982;-72
2022/05/10 03:36:55;;;;;;;;;;;7.50;99.90;;;;;;5052348;28;20285;-72
2022/05/10 03:39:20;;;;;;;;;;;7.50;99.90;;;;;;5052505;28;19909;-71
2022/05/10 03:41:46;;;;;;;;;;;7.40;99.90;;;;;;5052055;28;19954;-71
2022/05/10 03:44:12;;;;;;;;;;;7.40;99.90;;;;;;5052183;28;19909;-72
2022/05/10 03:46:37;;;;;;;;;;;7.40;99.90;;;;;;5054219;28;19912;-72
2022/05/10 03:49:03;;;;;;;;;;;7.40;99.90;;;;;;5057760;28;19986;-72
2022/05/10 03:51:29;;;;;;;;;;;7.50;99.90;;;;;;5052177;28;19935;-72
2022/05/10 03:53:55;;;;;;;;;;;7.40;99.90;;;;;;5052222;28;20374;-71
2022/05/10 03:56:20;;;;;;;;;;;7.30;99.90;;;;;;5052440;28;19913;-72
2022/05/10 03:58:46;;;;;;;;;;;7.30;99.90;;;;;;5052312;28;20003;-71
2022/05/10 04:01:11;;;;;;;;;;;7.30;99.90;;;;;;5052122;28;19909;-71
2022/05/10 04:03:36;;;;;;;;;;;7.50;99.90;;;;;;5051702;28;19909;-71
2022/05/10 04:06:03;;;;;;;;;;;7.50;99.90;;;;;;5051946;28;19912;-71
2022/05/10 04:08:29;;;;;;;;;;;7.40;99.90;;;;;;5052403;28;20420;-71
2022/05/10 04:10:54;;;;;;;;;;;7.40;99.90;;;;;;5051915;28;19917;-72
2022/05/10 04:13:20;;;;;;;;;;;7.50;99.90;;;;;;5051552;28;20285;-71
2022/05/10 04:15:45;;;;;;;;;;;7.50;99.90;;;;;;5050305;28;19920;-71
2022/05/10 04:18:10;;;;;;;;;;;7.60;99.90;;;;;;5059675;28;20408;-71
2022/05/10 04:20:36;;;;;;;;;;;7.70;99.90;;;;;;5051721;28;19915;-72
2022/05/10 04:23:02;;;;;;;;;;;7.60;99.90;;;;;;5051663;28;19909;-71
2022/05/10 04:25:27;;;;;;;;;;;7.70;99.90;;;;;;5051609;28;19909;-71
2022/05/10 04:27:53;;;;;;;;;;;7.80;99.90;;;;;;5058905;28;19912;-71
2022/05/10 04:30:19;;;;;;;;;;;7.80;99.90;;;;;;5051640;28;20281;-71
2022/05/10 04:32:45;;;;;;;;;;;7.80;99.90;;;;;;5051529;28;19909;-71
2022/05/10 04:35:11;;;;;;;;;;;7.90;99.90;;;;;;5051247;28;19909;-71
2022/05/10 04:37:36;;;;;;;;;;;8.00;99.90;;;;;;5051848;28;19980;-71
2022/05/10 04:42:47;;;;;;;;;;;8.20;99.90;;;;;;5050961;28;19916;-71
2022/05/10 04:45:13;;;;;;;;;;;8.40;99.90;;;;;;5055884;28;19916;-71
2022/05/10 04:47:39;;;;;;;;;;;8.50;99.90;;;;;;5055426;28;19924;-72
2022/05/10 04:50:04;;;;;;;;;;;8.60;99.90;;;;;;5055494;28;19917;-71
2022/05/10 04:52:30;;;;;;;;;;;8.70;99.90;;;;;;5055213;28;19908;-71
2022/05/10 04:54:55;;;;;;;;;;;8.80;99.90;;;;;;5055461;28;19916;-71
2022/05/10 04:57:21;;;;;;;;;;;9.10;99.90;;;;;;5055754;28;20437;-72
2022/05/10 04:59:47;;;;;;;;;;;9.30;99.90;;;;;;5055443;28;19971;-72
2022/05/10 05:02:13;;;;;;;;;;;9.50;99.90;;;;;;5055035;28;20362;-71
2022/05/10 05:04:39;;;;;;;;;;;9.60;99.90;;;;;;5055325;28;19916;-71
2022/05/10 05:07:04;;;;;;;;;;;9.70;99.90;;;;;;5055319;28;19912;-71
2022/05/10 05:09:30;;;;;;;;;;;9.90;99.90;;;;;;5056125;28;20468;-71
2022/05/10 05:11:56;;;;;;;;;;;10.00;99.90;;;;;;5056571;28;19912;-72
2022/05/10 05:14:22;;;;;;;;;;;10.10;99.90;;;;;;5054955;28;20432;-71
2022/05/10 05:16:47;;;;;;;;;;;10.10;99.90;;;;;;5054215;28;19909;-71
2022/05/10 05:19:13;;;;;;;;;;;10.30;99.90;;;;;;5055078;28;19908;-71
2022/05/10 05:21:38;;;;;;;;;;;10.40;99.90;;;;;;5054425;28;19909;-71
2022/05/10 05:24:05;;;;;;;;;;;10.50;99.90;;;;;;5053546;28;20046;-72
2022/05/10 05:26:30;;;;;;;;;;;10.60;99.90;;;;;;5054294;28;19909;-72
2022/05/10 05:28:56;;;;;;;;;;;10.80;99.90;;;;;;5054792;28;20274;-72
2022/05/10 05:31:22;;;;;;;;;;;10.80;99.90;;;;;;5054032;28;19966;-73
2022/05/10 05:33:48;;;;;;;;;;;11.20;99.90;;;;;;5054030;28;19912;-71
2022/05/10 05:36:13;;;;;;;;;;;11.30;99.90;;;;;;5053916;28;20445;-71
2022/05/10 05:38:39;;;;;;;;;;;11.40;99.90;;;;;;5054297;28;19912;-72
2022/05/10 05:41:04;;;;;;;;;;;11.40;99.90;;;;;;5054540;28;19912;-71
2022/05/10 05:43:30;;;;;;;;;;;11.50;99.90;;;;;;5053278;28;19967;-73
2022/05/10 05:45:55;;;;;;;;;;;11.60;99.90;;;;;;5054190;28;19909;-72
2022/05/10 05:48:21;;;;;;;;;;;11.60;99.90;;;;;;5053976;28;19909;-72
2022/05/10 05:50:46;;;;;;;;;;;11.70;99.90;;;;;;5053507;28;19912;-72
2022/05/10 05:53:12;;;;;;;;;;;11.80;99.90;;;;;;5060480;28;19908;-72
2022/05/10 05:55:38;;;;;;;;;;;11.90;99.90;;;;;;5073140;28;19916;-71
2022/05/10 05:58:03;;;;;;;;;;;12.00;99.90;;;;;;5071991;28;20323;-71
2022/05/10 06:00:29;;;;;;;;;;;12.10;99.90;;;;;;5053946;28;20419;-71
2022/05/10 06:02:55;;;;;;;;;;;12.20;99.90;;;;;;5047598;28;19908;-71
2022/05/10 06:05:21;;;;;;;;;;;12.30;99.90;;;;;;5053972;28;19908;-73
2022/05/10 06:07:47;;;;;;;;;;;12.50;99.90;;;;;;5054046;28;19909;-72
2022/05/10 06:10:13;;;;;;;;;;;12.80;99.90;;;;;;5054008;28;20266;-71
2022/05/10 06:12:39;;;;;;;;;;;13.20;99.90;;;;;;5056545;28;20617;-71
2022/05/10 06:15:10;;;;;;;;;;;13.40;99.90;;;;;;5053539;28;19992;-71
2022/05/10 06:17:36;;;;;;;;;;;13.60;99.90;;;;;;5053506;28;19909;-71
2022/05/10 06:20:04;;;;;;;;;;;13.70;99.90;;;;;;5053336;28;19909;-72
2022/05/10 06:22:30;;;;;;;;;;;13.80;99.90;;;;;;5053322;28;20397;-72
2022/05/10 06:24:55;;;;;;;;;;;14.10;99.90;;;;;;5053313;28;19908;-72
2022/05/10 06:27:21;;;;;;;;;;;14.30;99.90;;;;;;5053618;28;20387;-72
2022/05/10 06:29:46;;;;;;;;;;;14.50;99.90;;;;;;5053428;28;19919;-72
2022/05/10 06:32:18;;;;;;;;;;;14.70;99.90;;;;;;5053270;28;19909;-71
2022/05/10 06:34:44;;;;;;;;;;;14.80;99.90;;;;;;5053202;28;19909;-72
2022/05/10 06:39:54;;;;;;;;;;;15.00;99.90;;;;;;5043048;28;19954;-73
2022/05/10 06:42:23;;;;;;;;;;;15.30;99.90;;;;;;5052804;28;19909;-72
2022/05/10 06:44:48;;;;;;;;;;;15.40;99.90;;;;;;5053775;28;19909;-72
2022/05/10 06:47:14;;;;;;;;;;;15.70;99.90;;;;;;5054309;28;19999;-72
2022/05/10 06:49:39;;;;;;;;;;;15.90;99.90;;;;;;5049212;28;20365;-72
2022/05/10 06:52:05;;;;;;;;;;;16.20;99.90;;;;;;5058314;28;19908;-71
2022/05/10 06:54:30;;;;;;;;;;;16.60;99.90;;;;;;5052849;28;19909;-72
2022/05/10 06:56:56;;;;;;;;;;;17.80;99.90;;;;;;5065648;28;20409;-73
2022/05/10 06:59:21;;;;;;;;;;;18.00;99.90;;;;;;5059237;28;19908;-72
2022/05/10 07:01:47;;;;;;;;;;;18.30;99.90;;;;;;5054739;28;20365;-72
2022/05/10 07:04:12;;;;;;;;;;;19.30;99.90;;;;;;5052704;28;20015;-72
2022/05/10 07:06:37;;;;;;;;;;;19.90;99.90;;;;;;5047060;28;20397;-72
2022/05/10 07:09:03;;;;;;;;;;;19.90;99.80;;;;;;5052362;28;19913;-72
2022/05/10 07:11:28;;;;;;;;;;;20.40;98.50;;;;;;5052509;28;19956;-72
2022/05/10 07:13:54;;;;;;;;;;;20.60;96.00;;;;;;5054144;28;19915;-72
2022/05/10 07:16:19;;;;;;;;;;;21.10;96.30;;;;;;5051923;28;19909;-73
2022/05/10 07:18:45;;;;;;;;;;;21.50;95.10;;;;;;5052691;28;19913;-72
2022/05/10 07:21:10;;;;;;;;;;;21.40;93.50;;;;;;5052316;28;20273;-71
2022/05/10 07:23:36;;;;;;;;;;;20.90;95.70;;;;;;5051444;28;19955;-71
2022/05/10 07:26:01;;;;;;;;;;;21.30;95.60;;;;;;5056037;28;19952;-71
2022/05/10 07:28:29;;;;;;;;;;;21.80;93.10;;;;;;5049026;28;19912;-71
2022/05/10 07:30:55;;;;;;;;;;;22.00;94.40;;;;;;5060470;28;20420;-71
2022/05/10 07:33:21;;;;;;;;;;;22.10;93.30;;;;;;5057276;28;19916;-71
2022/05/10 07:38:30;;;;;;;;;;;22.90;92.50;;;;;;5051506;28;19915;-71
2022/05/10 07:40:55;;;;;;;;;;;22.60;91.10;;;;;;5056805;28;19909;-71
2022/05/10 07:43:21;;;;;;;;;;;22.50;91.00;;;;;;5055867;28;20324;-71
2022/05/10 07:45:49;;;;;;;;;;;22.80;90.80;;;;;;5051305;28;20020;-71
2022/05/10 07:48:15;;;;;;;;;;;22.40;90.70;;;;;;5048115;28;19921;-71
2022/05/10 07:50:41;;;;;;;;;;;23.10;88.00;;;;;;5053440;28;19920;-71
2022/05/10 07:53:09;;;;;;;;;;;23.10;88.60;;;;;;5051827;28;20274;-71
2022/05/10 07:55:35;;;;;;;;;;;23.10;87.40;;;;;;5048876;28;19908;-71
2022/05/10 07:58:01;;;;;;;;;;;24.10;88.60;;;;;;5051338;28;19978;-71
2022/05/10 08:00:26;;;;;;;;;;;24.50;85.50;;;;;;5051470;28;19916;-71
2022/05/10 08:02:52;;;;;;;;;;;24.50;85.20;;;;;;5052990;28;19909;-72
2022/05/10 08:05:19;;;;;;;;;;;24.70;79.30;;;;;;5051242;28;19913;-71
2022/05/10 08:07:45;;;;;;;;;;;24.20;83.20;;;;;;5051147;28;19959;-71
2022/05/10 08:10:10;;;;;;;;;;;24.40;81.30;;;;;;5051401;28;19990;-71
2022/05/10 08:12:36;;;;;;;;;;;23.30;85.20;;;;;;5051107;28;19908;-71
2022/05/10 08:15:02;;;;;;;;;;;23.90;86.10;;;;;;5051073;28;19970;-72
2022/05/10 08:17:28;;;;;;;;;;;24.70;84.60;;;;;;5051098;28;20000;-72
2022/05/10 08:19:53;;;;;;;;;;;25.80;81.60;;;;;;5056035;28;20004;-72
2022/05/10 08:22:18;;;;;;;;;;;26.10;77.10;;;;;;5050953;28;20416;-72
2022/05/10 08:24:44;;;;;;;;;;;26.10;78.10;;;;;;5051156;28;19909;-72
2022/05/10 08:27:09;;;;;;;;;;;25.90;78.90;;;;;;5056527;28;19970;-72
2022/05/10 08:29:35;;;;;;;;;;;26.60;78.20;;;;;;5059319;28;19913;-72
2022/05/10 08:32:00;;;;;;;;;;;25.60;76.00;;;;;;5051082;28;20285;-72
2022/05/10 08:34:27;;;;;;;;;;;25.50;74.70;;;;;;5051494;28;19909;-72
2022/05/10 08:36:53;;;;;;;;;;;25.20;80.80;;;;;;5044226;28;20478;-72
2022/05/10 08:39:19;;;;;;;;;;;26.40;70.50;;;;;;5070426;28;19961;-72
2022/05/10 08:41:52;;;;;;;;;;;27.00;74.00;;;;;;5052309;28;20392;-72
2022/05/10 08:44:19;;;;;;;;;;;28.20;73.00;;;;;;5050005;28;19999;-72
2022/05/10 08:46:46;;;;;;;;;;;28.60;70.50;;;;;;5051146;28;19910;-72
2022/05/10 08:49:14;;;;;;;;;;;28.00;68.30;;;;;;5050773;28;20007;-72
2022/05/10 08:51:39;;;;;;;;;;;27.70;69.80;;;;;;5050722;28;19924;-72
2022/05/10 08:54:05;;;;;;;;;;;28.50;67.10;;;;;;5044642;28;19913;-72
2022/05/10 08:56:32;;;;;;;;;;;28.50;68.90;;;;;;5058984;28;19952;-72
2022/05/10 08:59:16;;;;;;;;;;;28.10;65.40;;;;;;5070340;28;19935;-72
2022/05/10 09:01:56;;;;;;;;;;;28.00;68.00;;;;;;5050527;28;19916;-72
2022/05/10 09:04:24;;;;;;;;;;;28.90;65.70;;;;;;5050820;28;19908;-72
2022/05/10 09:06:54;;;;;;;;;;;29.20;67.10;;;;;;5051072;28;20324;-72
2022/05/10 09:09:27;;;;;;;;;;;28.80;69.40;;;;;;5051046;28;19909;-72
2022/05/10 09:11:53;;;;;;;;;;;29.00;60.50;;;;;;5050886;28;20393;-72
2022/05/10 09:14:26;;;;;;;;;;;29.00;66.00;;;;;;5050748;28;19970;-72
2022/05/10 09:16:52;;;;;;;;;;;29.40;63.70;;;;;;5050782;28;19909;-72
2022/05/10 09:19:18;;;;;;;;;;;29.40;64.70;;;;;;5067710;28;20392;-72
2022/05/10 09:21:49;;;;;;;;;;;29.10;60.50;;;;;;5069907;28;19913;-72
2022/05/10 09:24:14;;;;;;;;;;;27.50;63.10;;;;;;5070016;28;19909;-73
2022/05/10 09:26:44;;;;;;;;;;;28.30;62.30;;;;;;5069794;28;19909;-72
2022/05/10 09:29:10;;;;;;;;;;;28.70;64.30;;;;;;5068911;28;20381;-72
2022/05/10 09:37:14;;;;;;;;;;;30.10;61.40;;;;;;5054433;28;20497;-72
2022/05/10 09:39:45;;;;;;;;;;;29.40;57.30;;;;;;5052380;28;19988;-73
2022/05/10 09:42:23;;;;;;;;;;;29.70;61.40;;;;;;5054795;28;19909;-72
2022/05/10 09:44:56;;;;;;;;;;;29.50;60.80;;;;;;5073246;28;19962;-72
2022/05/10 09:47:21;;;;;;;;;;;28.70;62.30;;;;;;5073471;28;20099;-72
2022/05/10 09:49:47;;;;;;;;;;;29.00;59.40;;;;;;5072769;28;21890;-72
2022/05/10 09:52:17;;;;;;;;;;;29.90;58.90;;;;;;5073282;28;19954;-72
2022/05/10 09:54:43;;;;;;;;;;;30.60;60.30;;;;;;5053425;28;19908;-72
2022/05/10 09:57:13;;;;;;;;;;;30.80;55.20;;;;;;5055532;28;19909;-72
2022/05/10 09:59:42;;;;;;;;;;;30.10;60.20;;;;;;5047657;28;19924;-72
2022/05/10 10:02:08;;;;;;;;;;;26.80;64.50;;;;;;5051773;28;19960;-72
2022/05/10 10:04:37;;;;;;;;;;;28.30;64.10;;;;;;5053319;28;19967;-72
2022/05/10 10:07:04;;;;;;;;;;;29.30;61.70;;;;;;5053539;28;20309;-72
2022/05/10 10:09:31;;;;;;;;;;;29.60;57.00;;;;;;5053385;28;19916;-72
2022/05/10 10:11:57;;;;;;;;;;;30.10;60.80;;;;;;5053315;28;20362;-72
2022/05/10 10:14:39;;;;;;;;;;;29.90;58.20;;;;;;5053808;28;19954;-72
2022/05/10 10:17:07;;;;;;;;;;;29.10;63.40;;;;;;5053426;28;20269;-72
2022/05/10 10:19:38;;;;;;;;;;;29.50;59.40;;;;;;5053335;28;19916;-72
2022/05/10 10:22:15;;;;;;;;;;;28.00;58.60;;;;;;5053212;28;19944;-72
2022/05/10 10:24:59;;;;;;;;;;;29.00;59.50;;;;;;5053155;28;20434;-72
2022/05/10 10:27:34;;;;;;;;;;;28.50;63.10;;;;;;5053315;28;20122;-72
2022/05/10 10:30:03;;;;;;;;;;;27.70;64.10;;;;;;5053131;28;20019;-71
2022/05/10 10:32:37;;;;;;;;;;;27.80;59.00;;;;;;5055706;28;19909;-71
2022/05/10 10:35:09;;;;;;;;;;;28.40;60.60;;;;;;5054266;28;19936;-72
2022/05/10 10:37:40;;;;;;;;;;;28.40;58.20;;;;;;5054475;28;19915;-73
2022/05/10 10:40:17;;;;;;;;;;;25.40;59.50;;;;;;5055642;28;20327;-75
2022/05/10 10:42:48;;;;;;;;;;;24.20;61.50;;;;;;5055670;28;20000;-73
2022/05/10 10:45:15;;;;;;;;;;;25.10;69.80;;;;;;5053526;28;19912;-74
2022/05/10 10:47:50;;;;;;;;;;;27.20;62.90;;;;;;5053491;28;20282;-72
2022/05/10 10:50:21;;;;;;;;;;;28.60;61.10;;;;;;5053093;28;19916;-72
2022/05/10 10:52:48;;;;;;;;;;;29.10;54.80;;;;;;5044209;28;20275;-72
2022/05/10 10:55:18;;;;;;;;;;;27.50;59.20;;;;;;5051425;28;19909;-74
2022/05/10 10:57:56;;;;;;;;;;;26.70;59.70;;;;;;5044289;28;19912;-74
2022/05/10 11:00:42;;;;;;;;;;;25.80;63.00;;;;;;5047598;28;19952;-74
2022/05/10 11:03:26;;;;;;;;;;;25.50;58.30;;;;;;5051998;28;19920;-72
2022/05/10 11:06:00;;;;;;;;;;;24.50;63.50;;;;;;5052290;28;19966;-72
2022/05/10 11:08:29;;;;;;;;;;;23.60;61.20;;;;;;5052227;28;19909;-73
2022/05/10 11:10:54;;;;;;;;;;;24.90;68.60;;;;;;5051973;28;19998;-73
2022/05/10 11:13:23;;;;;;;;;;;25.80;63.70;;;;;;5051958;28;20059;-73
2022/05/10 11:15:51;;;;;;;;;;;25.70;64.30;;;;;;5052201;28;19909;-72
2022/05/10 11:18:16;;;;;;;;;;;25.60;56.40;;;;;;5052226;28;19913;-73
2022/05/10 11:20:47;;;;;;;;;;;25.10;63.70;;;;;;5051969;28;19909;-74
2022/05/10 11:23:16;;;;;;;;;;;25.90;57.50;;;;;;5051483;28;19962;-73
2022/05/10 11:25:50;;;;;;;;;;;27.30;61.90;;;;;;5055076;28;19913;-72
2022/05/10 11:28:26;;;;;;;;;;;28.20;56.20;;;;;;5052016;28;20003;-73
2022/05/10 11:31:11;;;;;;;;;;;28.00;52.50;;;;;;5051636;28;19912;-73
2022/05/10 11:33:46;;;;;;;;;;;28.90;54.60;;;;;;5050986;28;19917;-73
2022/05/10 11:36:30;;;;;;;;;;;29.00;54.40;;;;;;5050245;28;19996;-72
2022/05/10 11:39:15;;;;;;;;;;;29.70;55.70;;;;;;5051677;28;19909;-72
2022/05/10 11:41:44;;;;;;;;;;;29.30;56.70;;;;;;5044868;28;20020;-72
2022/05/10 11:44:29;;;;;;;;;;;29.50;50.10;;;;;;5055123;28;19909;-72
2022/05/10 11:47:00;;;;;;;;;;;28.80;52.80;;;;;;5055978;28;19956;-72
2022/05/10 11:49:35;;;;;;;;;;;28.00;54.40;;;;;;5055889;28;19916;-72
2022/05/10 11:52:05;;;;;;;;;;;27.50;53.40;;;;;;5051187;28;20003;-72
2022/05/10 11:54:33;;;;;;;;;;;28.00;53.80;;;;;;5047260;28;19909;-74
2022/05/10 11:57:00;;;;;;;;;;;28.50;52.10;;;;;;5055605;28;19912;-73
2022/05/10 11:59:28;;;;;;;;;;;29.30;51.30;;;;;;5050985;28;19916;-72
2022/05/10 12:01:55;;;;;;;;;;;28.10;54.20;;;;;;5047634;28;19916;-72
2022/05/10 12:04:39;;;;;;;;;;;27.50;56.40;;;;;;5051877;28;20385;-72
2022/05/10 12:07:19;;;;;;;;;;;27.30;59.30;;;;;;5051081;28;20007;-72
2022/05/10 12:10:03;;;;;;;;;;;26.40;57.80;;;;;;5070844;28;19916;-72
2022/05/10 12:12:31;;;;;;;;;;;26.20;58.30;;;;;;5070316;28;19954;-72
2022/05/10 12:23:48;;;;;;;;;;;28.00;57.40;;;;;;5068398;28;19915;-72
2022/05/10 12:26:32;;;;;;;;;;;27.30;60.10;;;;;;5047295;28;19924;-73
2022/05/10 12:28:57;;;;;;;;;;;27.40;59.20;;;;;;5051216;28;19966;-72
2022/05/10 12:31:32;;;;;;;;;;;26.70;56.00;;;;;;5050864;28;20233;-72
2022/05/10 12:33:59;;;;;;;;;;;26.20;60.00;;;;;;5044591;28;20373;-72
2022/05/10 12:36:32;;;;;;;;;;;27.20;58.40;;;;;;5041171;28;19913;-72
2022/05/10 12:39:16;;;;;;;;;;;27.90;59.80;;;;;;5051064;28;19916;-72
2022/05/10 12:41:45;;;;;;;;;;;29.50;57.70;;;;;;5050642;28;19916;-73
2022/05/10 12:44:27;;;;;;;;;;;29.20;52.60;;;;;;5046385;28;19909;-73
2022/05/10 12:46:58;;;;;;;;;;;30.00;52.90;;;;;;5046375;28;19916;-73
2022/05/10 12:49:32;;;;;;;;;;;30.80;53.60;;;;;;5051230;28;20310;-74
2022/05/10 12:52:20;;;;;;;;;;;29.80;48.60;;;;;;5050639;28;19912;-73
2022/05/10 12:54:48;;;;;;;;;;;30.90;52.20;;;;;;5048933;28;19937;-72
2022/05/10 12:57:20;;;;;;;;;;;30.90;49.00;;;;;;5053444;28;19913;-72
2022/05/10 12:59:57;;;;;;;;;;;31.40;48.70;;;;;;5051527;28;19961;-71
2022/05/10 13:02:24;;;;;;;;;;;31.30;48.40;;;;;;5050892;28;20329;-72
2022/05/10 13:04:55;;;;;;;;;;;30.60;51.70;;;;;;5051376;28;19908;-72
2022/05/10 13:07:39;;;;;;;;;;;31.60;51.80;;;;;;5054723;28;19954;-73
2022/05/10 13:10:16;;;;;;;;;;;32.00;46.50;;;;;;5054687;28;20372;-72
2022/05/10 13:12:49;;;;;;;;;;;32.50;48.20;;;;;;5054334;28;19943;-72
2022/05/10 13:15:19;;;;;;;;;;;31.90;52.00;;;;;;5054212;28;20400;-72
2022/05/10 13:17:46;;;;;;;;;;;30.90;47.60;;;;;;5047893;28;20404;-72
2022/05/10 13:20:13;;;;;;;;;;;27.70;54.10;;;;;;5051326;28;19991;-72
2022/05/10 13:22:55;;;;;;;;;;;28.10;52.40;;;;;;5060903;28;19913;-72
2022/05/10 13:25:34;;;;;;;;;;;28.60;53.20;;;;;;5054503;28;19974;-72
2022/05/10 13:28:12;;;;;;;;;;;28.00;51.60;;;;;;5053639;28;20354;-73
2022/05/10 13:30:38;;;;;;;;;;;28.40;55.70;;;;;;5053811;28;19913;-73
2022/05/10 13:33:04;;;;;;;;;;;28.40;54.70;;;;;;5054264;28;19908;-73
2022/05/10 13:35:35;;;;;;;;;;;28.30;55.60;;;;;;5054240;28;19916;-73
2022/05/10 13:38:05;;;;;;;;;;;29.30;53.80;;;;;;5054399;28;19917;-73
2022/05/10 13:40:45;;;;;;;;;;;29.40;56.10;;;;;;5054816;28;19931;-72
2022/05/10 13:43:13;;;;;;;;;;;29.70;53.70;;;;;;5048286;28;19988;-72
2022/05/10 13:45:40;;;;;;;;;;;29.70;53.30;;;;;;5053687;28;19912;-73
2022/05/10 13:48:08;;;;;;;;;;;30.30;53.70;;;;;;5054060;28;19908;-73
2022/05/10 13:50:33;;;;;;;;;;;29.30;52.80;;;;;;5053166;28;19917;-73
2022/05/10 13:53:01;;;;;;;;;;;29.20;55.30;;;;;;5051587;28;19917;-73
2022/05/10 13:55:29;;;;;;;;;;;29.90;53.20;;;;;;5055323;28;19915;-73
2022/05/10 13:57:55;;;;;;;;;;;30.80;54.30;;;;;;5053805;28;19916;-73
2022/05/10 14:00:23;;;;;;;;;;;30.30;53.40;;;;;;5052433;28;19909;-73
2022/05/10 14:02:52;;;;;;;;;;;29.00;55.60;;;;;;5047006;28;19955;-73
2022/05/10 14:05:19;;;;;;;;;;;27.50;57.40;;;;;;5053749;28;20381;-74
2022/05/10 14:07:48;;;;;;;;;;;27.10;58.60;;;;;;5053638;28;19937;-72
2022/05/10 14:10:18;;;;;;;;;;;26.80;62.10;;;;;;5053315;28;19913;-72
2022/05/10 14:12:49;;;;;;;;;;;27.00;61.20;;;;;;5051994;28;19912;-72
2022/05/10 14:15:21;;;;;;;;;;;26.10;59.00;;;;;;5053363;28;19909;-72
2022/05/10 14:17:52;;;;;;;;;;;26.10;58.10;;;;;;5053373;28;19913;-72
2022/05/10 14:20:24;;;;;;;;;;;25.90;61.70;;;;;;5053569;28;20242;-72
2022/05/10 14:22:53;;;;;;;;;;;26.20;60.70;;;;;;5053040;28;19955;-72
2022/05/10 14:25:26;;;;;;;;;;;27.60;58.60;;;;;;5053220;28;19916;-72
2022/05/10 14:27:53;;;;;;;;;;;29.10;53.40;;;;;;5053571;28;19909;-72
2022/05/10 14:30:22;;;;;;;;;;;29.10;54.70;;;;;;5053087;28;19936;-73
2022/05/10 14:32:47;;;;;;;;;;;28.20;56.90;;;;;;5052789;28;19913;-73
2022/05/10 14:35:30;;;;;;;;;;;28.40;57.20;;;;;;5052346;28;20271;-73
2022/05/10 14:37:57;;;;;;;;;;;28.80;56.50;;;;;;5053265;28;19909;-72
2022/05/10 14:40:29;;;;;;;;;;;26.80;60.00;;;;;;5046607;28;19909;-73
2022/05/10 14:43:05;;;;;;;;;;;26.20;61.80;;;;;;5053682;28;20370;-73
2022/05/10 14:45:57;;;;;;;;;;;27.00;60.60;;;;;;5051125;28;20362;-73
2022/05/10 14:48:45;;;;;;;;;;;27.10;59.90;;;;;;5052099;28;19909;-73
2022/05/10 14:51:29;;;;;;;;;;;27.10;58.90;;;;;;5049524;28;20353;-72
2022/05/10 14:53:55;;;;;;;;;;;27.00;65.10;;;;;;5054506;28;20229;-72
2022/05/10 14:56:21;;;;;;;;;;;27.40;58.50;;;;;;5059159;28;20277;-72
2022/05/10 14:58:49;;;;;;;;;;;27.30;56.90;;;;;;5052187;28;19990;-72
2022/05/10 15:01:26;;;;;;;;;;;28.50;56.20;;;;;;5065351;28;19923;-73